createdAt,value
2023-02-16T00:00:03.498Z,28.33
2023-02-16T00:02:10.288Z,31.13
2023-02-16T00:04:18.872Z,29.00
2023-02-16T00:06:21.863Z,28.93
2023-02-16T00:08:24.750Z,29.87
2023-02-16T00:10:30.945Z,27.30
2023-02-16T00:12:51.169Z,27.00
2023-02-16T00:14:53.946Z,28.00
2023-02-16T00:16:57.906Z,25.70
2023-02-16T00:19:02.503Z,28.93
2023-02-16T00:21:05.612Z,31.83
2023-02-16T00:23:08.422Z,28.53
2023-02-16T00:25:11.630Z,29.77
2023-02-16T00:27:18.445Z,29.93
2023-02-16T00:29:25.481Z,29.30
2023-02-16T00:31:32.844Z,28.67
2023-02-16T00:33:35.630Z,27.10
2023-02-16T00:35:39.656Z,30.37
2023-02-16T00:37:42.414Z,28.70
2023-02-16T00:39:46.348Z,29.87
2023-02-16T00:41:51.189Z,33.40
2023-02-16T00:43:54.852Z,29.87
2023-02-16T00:45:58.018Z,29.67
2023-02-16T00:48:00.782Z,30.23
2023-02-16T00:50:04.505Z,29.10
2023-02-16T00:52:33.972Z,31.20
2023-02-16T00:54:36.793Z,28.63
2023-02-16T00:56:40.692Z,30.30
2023-02-16T00:58:43.489Z,29.17
2023-02-16T01:00:49.709Z,31.10
2023-02-16T01:03:00.958Z,28.40
2023-02-16T01:05:03.908Z,32.70
2023-02-16T01:07:29.561Z,32.47
2023-02-16T01:09:49.637Z,32.40
2023-02-16T01:11:52.625Z,29.83
2023-02-16T01:13:56.960Z,33.33
2023-02-16T01:15:59.823Z,30.50
2023-02-16T01:18:02.607Z,33.17
2023-02-16T01:20:11.233Z,30.07
2023-02-16T01:22:15.821Z,30.60
2023-02-16T01:24:18.612Z,31.83
2023-02-16T01:26:21.975Z,35.73
2023-02-16T01:28:26.966Z,28.83
2023-02-16T01:30:29.881Z,31.70
2023-02-16T01:32:33.225Z,31.60
2023-02-16T01:34:35.921Z,30.27
2023-02-16T01:36:40.560Z,29.60
2023-02-16T01:38:44.598Z,31.10
2023-02-16T01:40:54.478Z,33.67
2023-02-16T01:43:03.870Z,35.10
2023-02-16T01:45:14.104Z,30.10
2023-02-16T01:47:30.818Z,31.33
2023-02-16T01:49:33.657Z,31.67
2023-02-16T01:51:49.725Z,27.43
2023-02-16T01:53:59.403Z,25.53
2023-02-16T01:56:05.879Z,33.00
2023-02-16T01:58:15.694Z,26.37
2023-02-16T02:00:28.230Z,32.40
2023-02-16T02:02:36.452Z,31.03
2023-02-16T02:05:01.868Z,33.37
2023-02-16T02:07:04.742Z,30.93
2023-02-16T02:09:12.678Z,31.60
2023-02-16T02:11:19.278Z,28.67
2023-02-16T02:13:27.739Z,30.07
2023-02-16T02:15:33.320Z,31.67
2023-02-16T02:17:37.338Z,31.43
2023-02-16T02:19:48.834Z,31.13
2023-02-16T02:22:32.452Z,29.17
2023-02-16T02:24:58.636Z,29.03
2023-02-16T02:27:18.025Z,32.43
2023-02-16T02:29:35.996Z,34.83
2023-02-16T02:31:50.706Z,35.73
2023-02-16T02:34:02.937Z,35.20
2023-02-16T02:36:17.624Z,33.17
2023-02-16T02:38:28.932Z,32.60
2023-02-16T02:40:42.101Z,33.33
2023-02-16T02:42:53.737Z,30.27
2023-02-16T02:45:02.679Z,31.83
2023-02-16T02:47:05.692Z,28.70
2023-02-16T02:49:08.455Z,34.73
2023-02-16T02:51:33.773Z,32.50
2023-02-16T02:53:39.460Z,31.70
2023-02-16T02:56:14.666Z,34.10
2023-02-16T02:58:37.752Z,34.40
2023-02-16T03:00:46.699Z,34.07
2023-02-16T03:02:52.460Z,34.57
2023-02-16T03:04:57.607Z,33.50
2023-02-16T03:07:02.594Z,34.00
2023-02-16T03:09:11.449Z,36.97
2023-02-16T03:11:35.361Z,38.90
2023-02-16T03:13:44.102Z,33.43
2023-02-16T03:15:49.002Z,35.90
2023-02-16T03:18:12.510Z,39.20
2023-02-16T03:20:35.020Z,39.93
2023-02-16T03:22:57.478Z,38.13
2023-02-16T03:25:17.594Z,41.47
2023-02-16T03:27:44.809Z,37.30
2023-02-16T03:29:50.937Z,35.13
2023-02-16T03:31:56.067Z,36.83
2023-02-16T03:33:59.401Z,41.10
2023-02-16T03:36:02.725Z,40.10
2023-02-16T03:38:06.312Z,37.40
2023-02-16T03:40:32.808Z,36.20
2023-02-16T03:42:35.626Z,38.73
2023-02-16T03:44:38.560Z,44.97
2023-02-16T03:46:43.013Z,38.73
2023-02-16T03:48:45.869Z,42.33
2023-02-16T03:50:48.589Z,44.50
2023-02-16T03:52:51.362Z,37.30
2023-02-16T03:54:54.080Z,47.97
2023-02-16T03:56:56.908Z,56.30
2023-02-16T03:58:59.669Z,48.80
2023-02-16T04:01:02.820Z,45.23
2023-02-16T04:03:08.840Z,44.93
2023-02-16T04:05:11.690Z,43.77
2023-02-16T04:07:14.617Z,44.07
2023-02-16T04:09:17.386Z,43.47
2023-02-16T04:11:37.558Z,42.83
2023-02-16T04:13:40.409Z,45.63
2023-02-16T04:15:43.211Z,47.17
2023-02-16T04:17:46.406Z,45.77
2023-02-16T04:19:50.497Z,40.77
2023-02-16T04:21:53.778Z,45.90
2023-02-16T04:23:56.502Z,40.80
2023-02-16T04:25:59.245Z,43.83
2023-02-16T04:28:02.149Z,45.10
2023-02-16T04:30:06.255Z,45.20
2023-02-16T04:32:09.223Z,46.27
2023-02-16T04:34:12.295Z,43.37
2023-02-16T04:36:16.613Z,43.93
2023-02-16T04:38:19.326Z,47.33
2023-02-16T04:40:22.258Z,49.03
2023-02-16T04:42:25.135Z,41.80
2023-02-16T04:44:28.005Z,42.97
2023-02-16T04:46:30.940Z,46.53
2023-02-16T04:48:33.678Z,45.67
2023-02-16T04:50:36.377Z,42.10
2023-02-16T04:52:41.400Z,45.47
2023-02-16T04:54:44.519Z,44.10
2023-02-16T04:56:47.817Z,48.07
2023-02-16T04:58:50.544Z,46.70
2023-02-16T05:00:53.240Z,50.00
2023-02-16T05:02:55.941Z,43.20
2023-02-16T05:04:58.653Z,45.70
2023-02-16T05:07:01.390Z,47.93
2023-02-16T05:09:06.943Z,47.67
2023-02-16T05:11:27.797Z,44.90
2023-02-16T05:13:48.164Z,45.77
2023-02-16T05:15:50.899Z,53.07
2023-02-16T05:17:53.628Z,61.73
2023-02-16T05:19:58.337Z,69.67
2023-02-16T05:22:00.240Z,66.10
2023-02-16T05:24:07.189Z,61.63
2023-02-16T05:26:09.889Z,50.23
2023-02-16T05:28:12.726Z,53.00
2023-02-16T05:30:16.430Z,49.30
2023-02-16T05:32:19.665Z,54.53
2023-02-16T05:34:22.633Z,62.20
2023-02-16T05:36:25.679Z,57.10
2023-02-16T05:38:28.409Z,57.33
2023-02-16T05:40:32.512Z,54.57
2023-02-16T05:42:35.199Z,52.33
2023-02-16T05:44:38.352Z,51.50
2023-02-16T05:46:42.062Z,53.87
2023-02-16T05:48:44.880Z,52.40
2023-02-16T05:50:47.646Z,50.07
2023-02-16T05:52:50.326Z,57.20
2023-02-16T05:54:53.137Z,60.73
2023-02-16T05:56:57.227Z,55.97
2023-02-16T05:59:00.527Z,58.83
2023-02-16T06:01:03.529Z,51.30
2023-02-16T06:03:06.433Z,53.60
2023-02-16T06:05:09.415Z,44.77
2023-02-16T06:07:14.637Z,47.83
2023-02-16T06:09:18.118Z,50.50
2023-02-16T06:11:39.148Z,48.63
2023-02-16T06:13:43.212Z,51.50
2023-02-16T06:15:46.585Z,49.23
2023-02-16T06:17:49.395Z,48.67
2023-02-16T06:19:52.467Z,58.20
2023-02-16T06:21:55.208Z,53.20
2023-02-16T06:23:58.182Z,50.97
2023-02-16T06:26:00.896Z,44.20
2023-02-16T06:28:04.073Z,49.47
2023-02-16T06:30:09.564Z,51.27
2023-02-16T06:32:12.387Z,49.90
2023-02-16T06:34:15.117Z,54.90
2023-02-16T06:36:18.206Z,46.37
2023-02-16T06:38:20.946Z,51.80
2023-02-16T06:40:23.733Z,54.43
2023-02-16T06:42:26.509Z,55.70
2023-02-16T06:44:29.390Z,52.77
2023-02-16T06:46:33.911Z,44.07
2023-02-16T06:48:36.672Z,53.40
2023-02-16T06:50:39.391Z,59.63
2023-02-16T06:52:42.301Z,46.97
2023-02-16T06:54:45.055Z,57.73
2023-02-16T06:56:47.769Z,52.70
2023-02-16T06:58:50.963Z,53.60
2023-02-16T07:00:55.744Z,54.23
2023-02-16T07:02:59.923Z,59.17
2023-02-16T07:05:03.364Z,58.73
2023-02-16T07:07:06.165Z,55.77
2023-02-16T07:09:10.604Z,47.47
2023-02-16T07:11:14.328Z,55.13
2023-02-16T07:13:17.128Z,59.07
2023-02-16T07:15:19.959Z,52.07
2023-02-16T07:17:22.703Z,57.43
2023-02-16T07:19:26.962Z,73.20
2023-02-16T07:21:30.009Z,68.80
2023-02-16T07:23:33.170Z,64.00
2023-02-16T07:25:37.072Z,59.77
2023-02-16T07:27:39.909Z,57.60
2023-02-16T07:29:42.629Z,60.27
2023-02-16T07:31:45.557Z,53.53
2023-02-16T07:33:48.359Z,59.07
2023-02-16T07:35:52.414Z,52.77
2023-02-16T07:37:55.086Z,63.27
2023-02-16T07:39:58.459Z,55.13
2023-02-16T07:42:01.729Z,56.83
2023-02-16T07:44:04.510Z,55.43
2023-02-16T07:46:07.365Z,59.07
2023-02-16T07:48:10.281Z,55.27
2023-02-16T07:50:13.358Z,54.77
2023-02-16T07:52:17.370Z,54.43
2023-02-16T07:54:20.168Z,50.90
2023-02-16T07:56:24.306Z,50.97
2023-02-16T07:58:29.990Z,54.10
2023-02-16T08:00:32.730Z,55.10
2023-02-16T08:02:36.045Z,46.83
2023-02-16T08:04:38.845Z,57.23
2023-02-16T08:06:41.558Z,45.27
2023-02-16T08:08:45.669Z,41.23
2023-02-16T08:10:48.354Z,46.20
2023-02-16T08:12:52.824Z,45.00
2023-02-16T08:14:55.595Z,43.73
2023-02-16T08:16:58.339Z,48.10
2023-02-16T08:19:04.767Z,45.67
2023-02-16T08:21:14.184Z,42.30
2023-02-16T08:23:16.964Z,42.00
2023-02-16T08:25:21.041Z,42.27
2023-02-16T08:27:24.779Z,44.00
2023-02-16T08:29:27.548Z,48.83
2023-02-16T08:31:32.556Z,45.53
2023-02-16T08:33:35.392Z,43.43
2023-02-16T08:35:39.541Z,40.97
2023-02-16T08:37:42.413Z,46.47
2023-02-16T08:39:45.262Z,43.33
2023-02-16T08:41:50.838Z,45.57
2023-02-16T08:43:53.697Z,41.80
2023-02-16T08:45:57.193Z,41.73
2023-02-16T08:48:02.185Z,39.33
2023-02-16T08:50:05.119Z,38.77
2023-02-16T08:52:07.856Z,44.63
2023-02-16T08:54:14.776Z,75.80
2023-02-16T08:56:17.536Z,53.33
2023-02-16T08:58:22.000Z,42.93
2023-02-16T09:00:38.061Z,40.07
2023-02-16T09:02:40.761Z,66.13
2023-02-16T09:04:43.525Z,75.30
2023-02-16T09:06:48.388Z,51.17
2023-02-16T09:08:55.868Z,37.80
2023-02-16T09:11:02.659Z,43.23
2023-02-16T09:13:05.886Z,59.47
2023-02-16T09:15:11.406Z,39.40
2023-02-16T09:17:14.260Z,33.73
2023-02-16T09:19:20.417Z,35.63
2023-02-16T09:21:25.678Z,39.40
2023-02-16T09:23:28.442Z,51.10
2023-02-16T09:25:36.806Z,38.60
2023-02-16T09:27:40.060Z,36.67
2023-02-16T09:29:43.881Z,36.83
2023-02-16T09:31:47.944Z,35.90
2023-02-16T09:33:51.338Z,34.80
2023-02-16T09:35:54.657Z,36.77
2023-02-16T09:37:58.194Z,31.37
2023-02-16T09:40:01.202Z,35.63
2023-02-16T09:42:17.320Z,33.63
2023-02-16T09:44:28.309Z,33.63
2023-02-16T09:46:33.410Z,31.87
2023-02-16T09:48:42.581Z,32.47
2023-02-16T09:50:53.695Z,35.47
2023-02-16T09:53:01.684Z,36.00
2023-02-16T09:55:08.954Z,35.00
2023-02-16T09:57:27.640Z,33.87
2023-02-16T09:59:42.401Z,32.83
2023-02-16T10:01:52.186Z,31.70
2023-02-16T10:04:06.557Z,32.97
2023-02-16T10:06:27.182Z,33.07
2023-02-16T10:08:34.153Z,46.70
2023-02-16T10:10:45.602Z,31.80
2023-02-16T10:12:54.875Z,27.73
2023-02-16T10:15:01.379Z,29.70
2023-02-16T10:17:16.149Z,30.17
2023-02-16T10:19:24.235Z,36.03
2023-02-16T10:21:31.358Z,30.70
2023-02-16T10:23:43.147Z,32.20
2023-02-16T10:25:49.471Z,28.17
2023-02-16T10:28:12.572Z,31.20
2023-02-16T10:30:17.304Z,31.83
2023-02-16T10:32:29.124Z,27.27
2023-02-16T10:34:46.274Z,27.03
2023-02-16T10:37:03.430Z,30.07
2023-02-16T10:39:17.201Z,29.43
2023-02-16T10:41:31.574Z,29.20
2023-02-16T10:43:43.817Z,27.37
2023-02-16T10:45:52.405Z,29.60
2023-02-16T10:47:55.628Z,27.73
2023-02-16T10:49:59.874Z,28.77
2023-02-16T10:52:04.427Z,29.43
2023-02-16T10:54:11.317Z,30.27
2023-02-16T10:56:39.748Z,27.50
2023-02-16T10:58:43.015Z,27.37
2023-02-16T11:00:52.655Z,28.83
2023-02-16T11:02:56.343Z,26.67
2023-02-16T11:05:48.456Z,26.90
2023-02-16T11:07:54.686Z,29.00
2023-02-16T11:10:01.224Z,32.00
2023-02-16T11:12:17.756Z,27.60
2023-02-16T11:14:23.228Z,26.93
2023-02-16T11:16:26.548Z,25.70
2023-02-16T11:18:34.110Z,25.93
2023-02-16T11:20:53.794Z,28.13
2023-02-16T11:23:14.455Z,25.57
2023-02-16T11:25:26.854Z,27.33
2023-02-16T11:27:29.900Z,24.63
2023-02-16T11:29:32.895Z,25.83
2023-02-16T11:31:40.726Z,24.77
2023-02-16T11:33:55.305Z,28.57
2023-02-16T11:36:02.352Z,25.70
2023-02-16T11:38:06.342Z,24.03
2023-02-16T11:40:21.532Z,24.13
2023-02-16T11:42:32.191Z,23.67
2023-02-16T11:44:37.544Z,24.90
2023-02-16T11:46:41.749Z,29.27
2023-02-16T11:48:44.985Z,29.60
2023-02-16T11:50:57.412Z,26.10
2023-02-16T11:53:23.401Z,24.43
2023-02-16T11:55:33.010Z,27.63
2023-02-16T11:57:37.394Z,27.93
2023-02-16T11:59:41.332Z,23.87
2023-02-16T12:02:23.043Z,26.60
2023-02-16T12:04:36.865Z,29.77
2023-02-16T12:06:55.375Z,24.63
2023-02-16T12:09:13.194Z,23.77
2023-02-16T12:11:28.119Z,25.80
2023-02-16T12:13:39.403Z,23.10
2023-02-16T12:15:49.093Z,23.93
2023-02-16T12:18:06.685Z,25.03
2023-02-16T12:20:23.914Z,23.10
2023-02-16T12:22:34.006Z,24.10
2023-02-16T12:24:50.189Z,26.90
2023-02-16T12:26:57.365Z,24.40
2023-02-16T12:29:11.111Z,24.37
2023-02-16T12:31:34.004Z,26.47
2023-02-16T12:33:49.569Z,24.60
2023-02-16T12:36:02.784Z,22.23
2023-02-16T12:38:16.619Z,23.43
2023-02-16T12:40:32.417Z,25.50
2023-02-16T12:42:45.996Z,25.37
2023-02-16T12:44:51.495Z,24.90
2023-02-16T12:47:01.929Z,25.17
2023-02-16T12:49:14.524Z,23.13
2023-02-16T12:51:20.325Z,24.00
2023-02-16T12:53:27.987Z,22.63
2023-02-16T12:55:38.212Z,25.77
2023-02-16T12:57:50.481Z,26.03
2023-02-16T12:59:59.450Z,25.27
2023-02-16T13:02:05.351Z,22.77
2023-02-16T13:04:18.620Z,22.23
2023-02-16T13:06:47.688Z,21.67
2023-02-16T13:08:57.187Z,22.23
2023-02-16T13:11:11.317Z,22.90
2023-02-16T13:13:18.948Z,22.37
2023-02-16T13:15:27.069Z,22.77
2023-02-16T13:17:34.083Z,22.43
2023-02-16T13:19:37.254Z,22.80
2023-02-16T13:21:55.280Z,25.73
2023-02-16T13:24:07.690Z,26.17
2023-02-16T13:26:39.288Z,25.87
2023-02-16T13:29:12.056Z,27.17
2023-02-16T13:31:27.220Z,27.17
2023-02-16T13:33:52.800Z,26.70
2023-02-16T13:36:07.608Z,22.03
2023-02-16T13:38:34.149Z,25.47
2023-02-16T13:40:59.682Z,23.90
2023-02-16T13:43:28.079Z,24.23
2023-02-16T13:45:33.783Z,22.70
2023-02-16T13:47:50.153Z,24.37
2023-02-16T13:49:58.760Z,21.97
2023-02-16T13:52:02.126Z,22.97
2023-02-16T13:54:05.602Z,24.30
2023-02-16T13:56:23.107Z,21.97
2023-02-16T13:58:35.640Z,24.07
2023-02-16T14:00:40.988Z,22.60
2023-02-16T14:03:02.018Z,25.80
2023-02-16T14:05:11.807Z,23.03
2023-02-16T14:07:35.799Z,22.33
2023-02-16T14:09:49.330Z,23.90
2023-02-16T14:12:04.478Z,22.20
2023-02-16T14:14:27.891Z,24.60
2023-02-16T14:16:34.034Z,23.83
2023-02-16T14:18:43.435Z,22.40
2023-02-16T14:20:46.129Z,22.97
2023-02-16T14:22:51.072Z,35.20
2023-02-16T14:24:56.138Z,30.00
2023-02-16T14:27:01.891Z,23.87
2023-02-16T14:29:15.904Z,27.23
2023-02-16T14:31:22.837Z,23.43
2023-02-16T14:33:39.359Z,23.80
2023-02-16T14:35:44.026Z,23.80
2023-02-16T14:37:55.341Z,25.70
2023-02-16T14:40:12.287Z,26.17
2023-02-16T14:42:17.765Z,22.33
2023-02-16T14:44:45.838Z,32.33
2023-02-16T14:46:57.662Z,24.90
2023-02-16T14:49:41.191Z,24.30
2023-02-16T14:52:16.331Z,23.40
2023-02-16T14:54:52.685Z,26.00
2023-02-16T14:57:03.130Z,23.90
2023-02-16T14:59:13.190Z,23.23
2023-02-16T15:01:19.340Z,22.80
2023-02-16T15:03:24.352Z,26.67
2023-02-16T15:05:29.831Z,23.83
2023-02-16T15:07:32.585Z,24.73
2023-02-16T15:09:36.365Z,20.67
2023-02-16T15:11:59.071Z,23.80
2023-02-16T15:14:09.306Z,23.03
2023-02-16T15:16:15.850Z,25.67
2023-02-16T15:18:23.483Z,25.03
2023-02-16T15:20:30.980Z,24.30
2023-02-16T15:22:33.819Z,23.43
2023-02-16T15:24:36.574Z,24.60
2023-02-16T15:26:39.305Z,26.40
2023-02-16T15:28:42.085Z,21.17
2023-02-16T15:30:49.136Z,21.83
2023-02-16T15:32:54.264Z,24.00
2023-02-16T15:34:59.526Z,24.57
2023-02-16T15:37:20.031Z,25.90
2023-02-16T15:39:38.512Z,26.37
2023-02-16T15:41:51.107Z,25.30
2023-02-16T15:43:53.834Z,22.63
2023-02-16T15:45:56.739Z,23.53
2023-02-16T15:48:25.825Z,23.10
2023-02-16T15:50:30.468Z,23.63
2023-02-16T15:52:35.801Z,22.03
2023-02-16T15:54:40.511Z,23.97
2023-02-16T15:56:47.212Z,27.47
2023-02-16T15:58:50.344Z,22.73
2023-02-16T16:00:55.057Z,22.60
2023-02-16T16:02:59.126Z,22.60
2023-02-16T16:05:04.424Z,23.70
2023-02-16T16:07:13.025Z,21.27
2023-02-16T16:09:25.547Z,22.10
2023-02-16T16:11:28.699Z,23.33
2023-02-16T16:13:32.303Z,23.27
2023-02-16T16:15:41.577Z,25.57
2023-02-16T16:17:44.334Z,33.43
2023-02-16T16:19:47.206Z,27.57
2023-02-16T16:21:54.140Z,24.30
2023-02-16T16:24:01.209Z,30.60
2023-02-16T16:26:16.916Z,26.47
2023-02-16T16:28:35.801Z,23.80
2023-02-16T16:30:43.790Z,25.90
2023-02-16T16:32:47.034Z,26.73
2023-02-16T16:34:51.010Z,23.00
2023-02-16T16:36:56.584Z,23.67
2023-02-16T16:39:23.594Z,22.50
2023-02-16T16:41:29.062Z,24.33
2023-02-16T16:43:33.553Z,20.77
2023-02-16T16:45:37.962Z,20.83
2023-02-16T16:47:42.129Z,23.63
2023-02-16T16:49:59.136Z,23.37
2023-02-16T16:52:03.995Z,25.70
2023-02-16T16:54:08.393Z,22.90
2023-02-16T16:56:15.107Z,23.57
2023-02-16T16:58:17.842Z,27.43
2023-02-16T17:00:21.689Z,21.57
2023-02-16T17:02:24.492Z,21.60
2023-02-16T17:04:27.893Z,23.57
2023-02-16T17:06:31.046Z,25.80
2023-02-16T17:08:33.744Z,23.17
2023-02-16T17:10:38.387Z,22.80
2023-02-16T17:12:42.586Z,24.03
2023-02-16T17:14:45.331Z,24.40
2023-02-16T17:16:50.706Z,25.77
2023-02-16T17:18:53.567Z,24.17
2023-02-16T17:20:56.493Z,24.47
2023-02-16T17:23:04.334Z,24.97
2023-02-16T17:25:07.396Z,23.13
2023-02-16T17:27:11.256Z,22.43
2023-02-16T17:29:16.134Z,24.97
2023-02-16T17:31:18.949Z,25.50
2023-02-16T17:33:21.770Z,25.00
2023-02-16T17:35:24.597Z,23.30
2023-02-16T17:37:27.947Z,24.50
2023-02-16T17:39:31.464Z,24.70
2023-02-16T17:41:34.132Z,25.33
2023-02-16T17:43:36.829Z,29.03
2023-02-16T17:45:41.490Z,25.53
2023-02-16T17:47:45.246Z,24.50
2023-02-16T17:49:47.960Z,27.20
2023-02-16T17:51:50.685Z,28.03
2023-02-16T17:53:53.619Z,25.47
2023-02-16T17:55:58.534Z,24.57
2023-02-16T17:58:01.249Z,26.73
2023-02-16T18:00:05.506Z,25.43
2023-02-16T18:02:10.589Z,27.47
2023-02-16T18:04:13.393Z,25.87
2023-02-16T18:06:18.147Z,25.90
2023-02-16T18:08:20.891Z,25.83
2023-02-16T18:10:34.409Z,24.97
2023-02-16T18:12:37.139Z,28.03
2023-02-16T18:14:40.293Z,33.27
2023-02-16T18:16:43.163Z,27.33
2023-02-16T18:18:47.265Z,27.10
2023-02-16T18:20:50.058Z,30.57
2023-02-16T18:22:52.978Z,27.97
2023-02-16T18:24:55.685Z,25.33
2023-02-16T18:26:58.774Z,28.00
2023-02-16T18:29:01.520Z,30.77
2023-02-16T18:31:07.302Z,27.70
2023-02-16T18:33:10.158Z,26.13
2023-02-16T18:35:15.196Z,30.60
2023-02-16T18:37:18.241Z,26.23
2023-02-16T18:39:20.943Z,28.10
2023-02-16T18:41:23.759Z,31.67
2023-02-16T18:43:26.572Z,27.97
2023-02-16T18:45:30.030Z,28.37
2023-02-16T18:47:32.772Z,27.50
2023-02-16T18:49:35.844Z,27.97
2023-02-16T18:51:39.999Z,30.43
2023-02-16T18:53:42.833Z,31.87
2023-02-16T18:55:45.611Z,33.73
2023-02-16T18:57:48.411Z,25.63
2023-02-16T18:59:54.212Z,28.00
2023-02-16T19:01:57.692Z,29.03
2023-02-16T19:04:01.194Z,27.93
2023-02-16T19:06:04.398Z,29.97
2023-02-16T19:08:08.665Z,30.67
2023-02-16T19:10:14.667Z,29.97
2023-02-16T19:12:17.939Z,26.57
2023-02-16T19:14:20.686Z,28.13
2023-02-16T19:16:23.747Z,29.33
2023-02-16T19:18:29.142Z,30.03
2023-02-16T19:20:31.955Z,24.97
2023-02-16T19:22:37.212Z,34.27
2023-02-16T19:24:41.492Z,26.67
2023-02-16T19:26:44.363Z,27.23
2023-02-16T19:28:47.278Z,27.37
2023-02-16T19:30:50.278Z,29.73
2023-02-16T19:32:53.144Z,29.53
2023-02-16T19:34:56.111Z,29.63
2023-02-16T19:36:58.819Z,25.47
2023-02-16T19:39:01.854Z,46.27
2023-02-16T19:41:11.935Z,34.50
2023-02-16T19:43:14.678Z,33.47
2023-02-16T19:45:17.504Z,31.00
2023-02-16T19:47:20.231Z,26.63
2023-02-16T19:49:23.052Z,29.03
2023-02-16T19:51:26.499Z,29.50
2023-02-16T19:53:30.029Z,29.93
2023-02-16T19:55:33.337Z,28.87
2023-02-16T19:57:37.521Z,31.13
2023-02-16T19:59:40.181Z,27.23
2023-02-16T20:01:42.982Z,28.53
2023-02-16T20:03:46.326Z,29.23
2023-02-16T20:05:49.196Z,28.97
2023-02-16T20:07:51.887Z,25.33
2023-02-16T20:09:54.697Z,26.73
2023-02-16T20:11:57.413Z,28.27
2023-02-16T20:14:02.323Z,25.93
2023-02-16T20:16:07.387Z,27.03
2023-02-16T20:18:13.018Z,24.00
2023-02-16T20:20:15.803Z,27.73
2023-02-16T20:22:18.830Z,30.20
2023-02-16T20:24:21.522Z,25.27
2023-02-16T20:26:27.086Z,28.50
2023-02-16T20:28:29.922Z,26.33
2023-02-16T20:30:34.251Z,26.13
2023-02-16T20:32:37.047Z,26.67
2023-02-16T20:34:39.870Z,25.83
2023-02-16T20:36:45.324Z,27.87
2023-02-16T20:38:50.260Z,29.87
2023-02-16T20:40:53.044Z,26.70
2023-02-16T20:42:55.803Z,26.03
2023-02-16T20:44:58.565Z,28.50
2023-02-16T20:47:02.750Z,33.70
2023-02-16T20:49:06.679Z,31.47
2023-02-16T20:51:11.793Z,37.87
2023-02-16T20:53:14.533Z,31.10
2023-02-16T20:55:17.342Z,29.50
2023-02-16T20:57:26.846Z,29.90
2023-02-16T20:59:30.131Z,28.13
2023-02-16T21:01:38.101Z,28.03
2023-02-16T21:03:42.610Z,30.43
2023-02-16T21:05:45.526Z,23.07
2023-02-16T21:07:49.963Z,30.80
2023-02-16T21:09:53.011Z,26.40
2023-02-16T21:11:56.205Z,29.03
2023-02-16T21:13:59.250Z,26.77
2023-02-16T21:16:02.425Z,29.77
2023-02-16T21:18:05.783Z,28.77
2023-02-16T21:20:11.009Z,28.93
2023-02-16T21:22:13.736Z,27.30
2023-02-16T21:24:16.554Z,28.53
2023-02-16T21:26:21.757Z,29.63
2023-02-16T21:28:24.476Z,28.13
2023-02-16T21:30:27.363Z,27.80
2023-02-16T21:32:30.114Z,29.00
2023-02-16T21:34:33.028Z,28.57
2023-02-16T21:36:37.723Z,26.17
2023-02-16T21:38:42.324Z,26.33
2023-02-16T21:41:02.436Z,28.53
2023-02-16T21:43:05.228Z,26.80
2023-02-16T21:45:14.508Z,30.37
2023-02-16T21:47:36.144Z,29.87
2023-02-16T21:49:39.974Z,28.47
2023-02-16T21:51:45.486Z,27.87
2023-02-16T21:53:49.101Z,27.17
2023-02-16T21:56:09.506Z,29.93
2023-02-16T21:58:12.538Z,26.83
2023-02-16T22:00:16.415Z,28.53
2023-02-16T22:02:19.204Z,30.20
2023-02-16T22:04:23.598Z,30.03
2023-02-16T22:06:28.493Z,27.70
2023-02-16T22:08:34.665Z,27.83
2023-02-16T22:10:37.441Z,25.97
2023-02-16T22:12:40.314Z,27.73
2023-02-16T22:14:43.038Z,25.93
2023-02-16T22:16:48.148Z,25.60
2023-02-16T22:18:51.234Z,26.43
2023-02-16T22:20:53.949Z,27.03
2023-02-16T22:22:56.789Z,28.07
2023-02-16T22:25:00.844Z,28.07
2023-02-16T22:27:03.658Z,26.43
2023-02-16T22:29:07.828Z,25.83
2023-02-16T22:31:10.590Z,24.97
2023-02-16T22:33:13.356Z,28.30
2023-02-16T22:35:16.248Z,29.43
2023-02-16T22:37:18.994Z,30.07
2023-02-16T22:39:22.078Z,27.57
2023-02-16T22:41:26.774Z,25.73
2023-02-16T22:43:29.540Z,32.97
2023-02-16T22:45:32.523Z,27.07
2023-02-16T22:47:35.248Z,27.63
2023-02-16T22:49:37.992Z,28.73
2023-02-16T22:51:40.833Z,30.43
2023-02-16T22:53:43.900Z,30.40
2023-02-16T22:55:46.675Z,28.47
2023-02-16T22:57:50.756Z,26.73
2023-02-16T22:59:53.457Z,29.33
2023-02-16T23:01:56.216Z,28.07
2023-02-16T23:04:02.046Z,30.20
2023-02-16T23:06:12.690Z,28.30
2023-02-16T23:08:15.706Z,32.87
2023-02-16T23:10:18.668Z,36.10
2023-02-16T23:12:21.397Z,32.97
2023-02-16T23:14:25.448Z,32.23
2023-02-16T23:16:29.037Z,35.27
2023-02-16T23:18:31.951Z,34.53
2023-02-16T23:20:35.157Z,31.67
2023-02-16T23:22:37.933Z,29.07
2023-02-16T23:24:41.664Z,34.63
2023-02-16T23:26:44.800Z,33.77
2023-02-16T23:28:51.619Z,30.67
2023-02-16T23:30:57.474Z,29.97
2023-02-16T23:33:00.419Z,30.60
2023-02-16T23:35:03.234Z,32.47
2023-02-16T23:37:05.970Z,35.03
2023-02-16T23:39:10.943Z,32.00
2023-02-16T23:41:15.730Z,28.27
2023-02-16T23:43:18.524Z,37.10
2023-02-16T23:45:21.255Z,35.07
2023-02-16T23:47:25.448Z,29.17
2023-02-16T23:49:28.357Z,32.07
2023-02-16T23:51:31.664Z,28.03
2023-02-16T23:53:34.955Z,30.37
2023-02-16T23:55:37.774Z,33.93
2023-02-16T23:57:40.519Z,26.97
2023-02-16T23:59:43.541Z,29.20
